createdAt,value
2018-01-18T00:01:09.196Z,1.42
2018-01-18T00:03:35.899Z,1.48
2018-01-18T00:06:03.541Z,3.15
2018-01-18T00:08:31.018Z,1.90
2018-01-18T00:10:58.509Z,1.55
2018-01-18T00:13:25.223Z,2.62
2018-01-18T00:15:52.660Z,5.22
2018-01-18T00:18:19.402Z,2.30
2018-01-18T00:20:46.145Z,2.72
2018-01-18T00:23:12.883Z,2.58
2018-01-18T00:25:39.595Z,3.72
2018-01-18T00:28:06.298Z,2.75
2018-01-18T00:30:32.996Z,3.85
2018-01-18T00:32:59.739Z,2.37
2018-01-18T00:35:26.509Z,1.58
2018-01-18T00:37:53.298Z,2.75
2018-01-18T00:40:20.037Z,1.70
2018-01-18T00:42:46.724Z,0.93
2018-01-18T00:45:13.440Z,3.20
2018-01-18T00:47:40.154Z,1.30
2018-01-18T00:50:07.589Z,1.80
2018-01-18T00:52:34.316Z,1.48
2018-01-18T00:55:00.997Z,1.25
2018-01-18T00:57:28.448Z,1.62
2018-01-18T00:59:55.231Z,1.60
2018-01-18T01:02:21.999Z,2.15
2018-01-18T01:04:48.709Z,5.70
2018-01-18T01:07:30.401Z,3.55
2018-01-18T01:09:57.780Z,2.45
2018-01-18T01:12:24.418Z,2.15
2018-01-18T01:14:51.080Z,2.62
2018-01-18T01:17:17.842Z,1.62
2018-01-18T01:19:44.484Z,4.40
2018-01-18T01:22:11.173Z,2.95
2018-01-18T01:24:38.555Z,4.00
2018-01-18T01:27:05.185Z,3.37
2018-01-18T01:29:31.910Z,2.85
2018-01-18T01:31:59.359Z,2.10
2018-01-18T01:34:26.051Z,4.35
2018-01-18T01:36:52.773Z,7.15
2018-01-18T01:39:20.223Z,6.03
2018-01-18T01:41:47.649Z,3.10
2018-01-18T01:44:14.408Z,3.00
2018-01-18T01:46:41.082Z,3.72
2018-01-18T01:49:07.765Z,2.78
2018-01-18T01:51:34.447Z,2.15
2018-01-18T01:54:01.875Z,2.10
2018-01-18T01:56:28.626Z,2.10
2018-01-18T01:58:55.318Z,3.28
2018-01-18T02:01:22.007Z,4.97
2018-01-18T02:03:48.745Z,5.97
2018-01-18T02:06:15.437Z,12.20
2018-01-18T02:08:42.897Z,4.85
2018-01-18T02:11:10.334Z,7.35
2018-01-18T02:13:37.106Z,9.27
2018-01-18T02:16:04.536Z,9.50
2018-01-18T02:18:31.233Z,7.55
2018-01-18T02:20:57.976Z,6.37
2018-01-18T02:23:24.668Z,5.47
2018-01-18T02:25:51.405Z,5.15
2018-01-18T02:28:18.151Z,3.25
2018-01-18T02:30:44.927Z,4.82
2018-01-18T02:33:12.340Z,3.53
2018-01-18T02:35:39.055Z,1.60
2018-01-18T02:38:05.747Z,2.75
2018-01-18T02:40:32.470Z,1.65
2018-01-18T02:42:59.192Z,6.20
2018-01-18T02:45:25.886Z,2.70
2018-01-18T02:47:52.627Z,3.10
2018-01-18T02:50:19.380Z,1.70
2018-01-18T02:52:46.134Z,5.18
2018-01-18T02:55:12.885Z,2.37
2018-01-18T02:57:40.336Z,1.52
2018-01-18T03:00:07.804Z,3.45
2018-01-18T03:02:35.239Z,3.67
2018-01-18T03:05:02.001Z,1.98
2018-01-18T03:07:29.462Z,2.28
2018-01-18T03:09:56.902Z,2.22
2018-01-18T03:12:23.643Z,9.63
2018-01-18T03:14:50.374Z,5.05
2018-01-18T03:17:17.086Z,3.00
2018-01-18T03:19:43.836Z,4.20
2018-01-18T03:22:10.627Z,3.70
2018-01-18T03:24:37.313Z,1.50
2018-01-18T03:27:04.031Z,2.58
2018-01-18T03:29:31.514Z,3.47
2018-01-18T03:31:58.273Z,4.25
2018-01-18T03:34:25.020Z,2.42
2018-01-18T03:36:51.738Z,2.50
2018-01-18T03:39:19.184Z,3.85
2018-01-18T03:41:46.670Z,2.33
2018-01-18T03:44:13.345Z,2.42
2018-01-18T03:46:40.035Z,3.37
2018-01-18T03:49:07.523Z,3.55
2018-01-18T03:51:34.266Z,3.25
2018-01-18T03:54:00.976Z,1.87
2018-01-18T03:56:27.737Z,3.30
2018-01-18T03:58:55.190Z,2.42
2018-01-18T04:01:22.648Z,1.90
2018-01-18T04:03:50.129Z,6.32
2018-01-18T04:06:17.587Z,5.95
2018-01-18T04:08:45.062Z,2.25
2018-01-18T04:11:11.814Z,3.62
2018-01-18T04:13:40.591Z,5.05
2018-01-18T04:16:07.295Z,3.80
2018-01-18T04:18:34.063Z,7.15
2018-01-18T04:21:01.515Z,5.65
2018-01-18T04:23:28.171Z,4.53
2018-01-18T04:25:55.644Z,4.50
2018-01-18T04:28:22.298Z,8.20
2018-01-18T04:30:48.986Z,4.72
2018-01-18T04:33:15.732Z,3.50
2018-01-18T04:35:42.453Z,3.40
2018-01-18T04:38:09.118Z,6.80
2018-01-18T04:40:35.901Z,5.20
2018-01-18T04:43:03.338Z,6.82
2018-01-18T04:45:30.054Z,3.75
2018-01-18T04:47:56.745Z,4.30
2018-01-18T04:50:24.213Z,3.62
2018-01-18T04:52:50.995Z,4.43
2018-01-18T04:55:17.734Z,3.33
2018-01-18T04:57:44.428Z,4.68
2018-01-18T05:00:11.874Z,4.12
2018-01-18T05:02:38.584Z,2.50
2018-01-18T05:05:05.275Z,6.37
2018-01-18T05:07:32.738Z,1.20
2018-01-18T05:10:00.226Z,3.15
2018-01-18T05:12:26.950Z,4.75
2018-01-18T05:14:54.363Z,1.55
2018-01-18T05:17:21.078Z,2.35
2018-01-18T05:19:47.746Z,2.65
2018-01-18T05:22:14.444Z,4.37
2018-01-18T05:24:41.874Z,2.00
2018-01-18T05:27:08.621Z,2.47
2018-01-18T05:29:35.319Z,2.47
2018-01-18T05:32:02.017Z,1.77
2018-01-18T05:34:29.461Z,3.42
2018-01-18T05:36:56.180Z,2.67
2018-01-18T05:39:22.895Z,6.60
2018-01-18T05:41:49.591Z,6.35
2018-01-18T05:44:16.271Z,5.00
2018-01-18T05:46:43.750Z,2.45
2018-01-18T05:49:10.449Z,3.45
2018-01-18T05:51:37.892Z,4.57
2018-01-18T05:54:04.621Z,3.00
2018-01-18T05:56:31.305Z,2.08
2018-01-18T05:58:58.771Z,2.40
2018-01-18T06:01:26.209Z,3.42
2018-01-18T06:03:52.900Z,5.10
2018-01-18T06:06:19.566Z,3.62
2018-01-18T06:08:46.312Z,2.80
2018-01-18T06:11:12.980Z,3.40
2018-01-18T06:13:39.694Z,3.25
2018-01-18T06:16:06.411Z,7.75
2018-01-18T06:18:33.096Z,3.58
2018-01-18T06:20:59.815Z,3.90
2018-01-18T06:23:26.565Z,2.87
2018-01-18T06:25:53.253Z,2.25
2018-01-18T06:28:19.952Z,4.10
2018-01-18T06:30:46.654Z,6.25
2018-01-18T06:33:14.136Z,3.45
2018-01-18T06:35:40.867Z,2.20
2018-01-18T06:38:08.333Z,3.70
2018-01-18T06:40:35.010Z,2.45
2018-01-18T06:43:01.681Z,3.62
2018-01-18T06:45:28.394Z,3.20
2018-01-18T06:47:55.080Z,4.30
2018-01-18T06:50:21.809Z,1.70
2018-01-18T06:52:48.522Z,3.87
2018-01-18T06:55:15.183Z,3.87
2018-01-18T06:57:41.865Z,6.25
2018-01-18T07:00:09.320Z,2.58
2018-01-18T07:02:36.746Z,3.97
2018-01-18T07:05:03.447Z,2.22
2018-01-18T07:07:30.162Z,6.62
2018-01-18T07:09:57.586Z,3.50
2018-01-18T07:12:24.246Z,2.22
2018-01-18T07:14:50.969Z,3.50
2018-01-18T07:17:17.653Z,2.50
2018-01-18T07:19:45.077Z,2.77
2018-01-18T07:22:11.781Z,2.73
2018-01-18T07:24:38.489Z,2.80
2018-01-18T07:27:05.186Z,2.07
2018-01-18T07:29:31.955Z,2.50
2018-01-18T07:31:58.670Z,4.57
2018-01-18T07:34:25.335Z,2.70
2018-01-18T07:36:52.052Z,1.70
2018-01-18T07:39:18.738Z,2.20
2018-01-18T07:41:45.486Z,2.50
2018-01-18T07:44:12.197Z,3.67
2018-01-18T07:46:38.865Z,2.43
2018-01-18T07:49:05.587Z,3.40
2018-01-18T07:51:32.387Z,3.90
2018-01-18T07:53:59.877Z,2.50
2018-01-18T07:56:26.532Z,2.23
2018-01-18T07:58:53.238Z,3.63
2018-01-18T08:01:20.647Z,3.03
2018-01-18T08:03:53.491Z,3.23
2018-01-18T08:06:20.176Z,2.30
2018-01-18T08:08:46.876Z,4.50
2018-01-18T08:11:14.310Z,7.43
2018-01-18T08:13:40.998Z,5.30
2018-01-18T08:16:07.708Z,5.97
2018-01-18T08:18:34.435Z,6.33
2018-01-18T08:21:01.148Z,4.77
2018-01-18T08:23:29.448Z,6.23
2018-01-18T08:25:57.832Z,5.80
2018-01-18T08:28:26.149Z,6.90
2018-01-18T08:30:54.500Z,4.00
2018-01-18T08:33:22.906Z,3.87
2018-01-18T08:35:51.280Z,5.77
2018-01-18T08:38:17.992Z,3.73
2018-01-18T08:40:44.704Z,3.23
2018-01-18T08:43:11.392Z,4.93
2018-01-18T08:45:38.101Z,5.47
2018-01-18T08:48:06.475Z,3.77
2018-01-18T08:50:41.822Z,8.70
2018-01-18T08:53:20.410Z,7.90
2018-01-18T08:55:47.106Z,5.17
2018-01-18T08:58:13.836Z,5.53
2018-01-18T09:00:40.573Z,3.90
2018-01-18T09:03:07.323Z,4.23
2018-01-18T09:05:34.029Z,3.80
2018-01-18T09:08:01.502Z,3.73
2018-01-18T09:10:28.934Z,5.90
2018-01-18T09:12:55.656Z,9.10
2018-01-18T09:15:22.438Z,6.50
2018-01-18T09:17:49.135Z,2.73
2018-01-18T09:20:15.833Z,4.20
2018-01-18T09:22:43.278Z,4.83
2018-01-18T09:25:09.998Z,2.93
2018-01-18T09:27:36.724Z,3.70
2018-01-18T09:30:03.511Z,5.43
2018-01-18T09:32:30.209Z,3.40
2018-01-18T09:34:56.885Z,4.07
2018-01-18T09:37:23.617Z,3.40
2018-01-18T09:39:50.363Z,5.67
2018-01-18T09:42:17.038Z,4.93
2018-01-18T09:44:44.523Z,5.70
2018-01-18T09:47:11.235Z,4.03
2018-01-18T09:49:38.007Z,4.50
2018-01-18T09:52:05.468Z,5.60
2018-01-18T09:54:32.177Z,2.80
2018-01-18T09:56:58.888Z,13.77
2018-01-18T09:59:25.609Z,3.50
2018-01-18T10:01:52.350Z,2.60
2018-01-18T10:04:19.050Z,2.87
2018-01-18T10:06:45.750Z,5.33
2018-01-18T10:09:12.438Z,7.43
2018-01-18T10:11:39.142Z,3.20
2018-01-18T10:14:05.892Z,4.93
2018-01-18T10:16:32.607Z,4.13
2018-01-18T10:19:00.068Z,6.97
2018-01-18T10:21:27.522Z,2.00
2018-01-18T10:23:54.952Z,6.20
2018-01-18T10:26:21.648Z,4.00
2018-01-18T10:28:48.359Z,2.30
2018-01-18T10:31:15.796Z,2.10
2018-01-18T10:33:42.514Z,4.50
2018-01-18T10:36:09.241Z,4.30
2018-01-18T10:38:35.985Z,2.50
2018-01-18T10:41:02.782Z,2.80
2018-01-18T10:43:29.527Z,3.47
2018-01-18T10:45:56.978Z,2.23
2018-01-18T10:48:23.682Z,4.57
2018-01-18T10:50:50.458Z,14.23
2018-01-18T10:53:17.135Z,10.87
2018-01-18T10:55:44.588Z,8.93
2018-01-18T10:58:11.301Z,9.10
2018-01-18T11:00:38.064Z,6.13
2018-01-18T11:03:04.792Z,4.03
2018-01-18T11:05:31.590Z,7.73
2018-01-18T11:07:58.286Z,10.40
2018-01-18T11:10:24.986Z,5.03
2018-01-18T11:12:51.722Z,4.77
2018-01-18T11:15:19.188Z,8.50
2018-01-18T11:17:45.922Z,4.20
2018-01-18T11:20:13.353Z,4.47
2018-01-18T11:22:40.078Z,7.33
2018-01-18T11:25:06.879Z,3.17
2018-01-18T11:27:33.699Z,3.90
2018-01-18T11:30:01.138Z,6.68
2018-01-18T11:32:30.140Z,3.75
2018-01-18T11:34:57.623Z,3.75
2018-01-18T11:37:25.094Z,6.40
2018-01-18T11:39:52.656Z,5.20
2018-01-18T11:42:20.198Z,10.77
2018-01-18T11:44:46.930Z,7.47
2018-01-18T11:47:13.598Z,5.13
2018-01-18T11:49:41.059Z,7.77
2018-01-18T11:52:08.552Z,3.83
2018-01-18T11:54:35.253Z,5.45
2018-01-18T11:57:02.757Z,4.47
2018-01-18T11:59:29.453Z,13.93
2018-01-18T12:01:56.150Z,4.97
2018-01-18T12:04:22.882Z,4.57
2018-01-18T12:06:49.591Z,2.53
2018-01-18T12:09:17.029Z,6.85
2018-01-18T12:11:43.771Z,5.28
2018-01-18T12:14:10.521Z,5.20
2018-01-18T12:16:37.252Z,5.90
2018-01-18T12:19:03.973Z,6.90
2018-01-18T12:21:30.697Z,11.13
2018-01-18T12:23:57.384Z,4.70
2018-01-18T12:26:24.114Z,6.77
2018-01-18T12:28:50.836Z,4.10
2018-01-18T12:31:17.542Z,9.70
2018-01-18T12:33:44.334Z,9.47
2018-01-18T12:36:11.021Z,3.20
2018-01-18T12:38:37.753Z,3.63
2018-01-18T12:41:04.511Z,2.57
2018-01-18T12:43:31.228Z,5.43
2018-01-18T12:45:57.892Z,5.83
2018-01-18T12:48:24.610Z,5.37
2018-01-18T12:50:51.330Z,6.40
2018-01-18T12:53:18.038Z,4.70
2018-01-18T12:55:44.748Z,4.30
2018-01-18T12:58:11.414Z,3.63
2018-01-18T13:00:38.086Z,5.00
2018-01-18T13:03:04.831Z,5.20
2018-01-18T13:05:32.292Z,3.70
2018-01-18T13:07:59.723Z,6.20
2018-01-18T13:10:26.475Z,5.27
2018-01-18T13:12:53.138Z,3.30
2018-01-18T13:15:20.578Z,3.97
2018-01-18T13:17:47.304Z,2.47
2018-01-18T13:20:14.012Z,2.93
2018-01-18T13:22:40.737Z,3.20
2018-01-18T13:25:08.187Z,2.90
2018-01-18T13:27:35.609Z,2.70
2018-01-18T13:30:02.383Z,3.50
2018-01-18T13:32:29.086Z,9.70
2018-01-18T13:34:55.776Z,4.67
2018-01-18T13:37:23.250Z,4.57
2018-01-18T13:39:50.717Z,5.10
2018-01-18T13:42:17.399Z,3.60
2018-01-18T13:44:44.094Z,4.17
2018-01-18T13:47:11.543Z,5.07
2018-01-18T13:49:38.270Z,5.83
2018-01-18T13:52:04.997Z,7.03
2018-01-18T13:54:31.750Z,6.33
2018-01-18T13:56:58.447Z,6.80
2018-01-18T13:59:25.144Z,5.73
2018-01-18T14:01:51.899Z,6.03
2018-01-18T14:04:19.336Z,5.20
2018-01-18T14:06:46.077Z,6.43
2018-01-18T14:09:12.793Z,4.83
2018-01-18T14:11:39.499Z,6.10
2018-01-18T14:14:20.364Z,7.33
2018-01-18T14:16:47.810Z,5.70
2018-01-18T14:19:14.618Z,5.07
2018-01-18T14:21:41.295Z,5.60
2018-01-18T14:27:18.690Z,6.43
2018-01-18T14:29:45.438Z,5.78
2018-01-18T14:32:13.774Z,7.53
2018-01-18T14:34:53.008Z,6.45
2018-01-18T14:37:21.394Z,6.78
2018-01-18T14:39:49.857Z,7.47
2018-01-18T14:42:18.225Z,4.80
2018-01-18T14:44:46.559Z,7.57
2018-01-18T14:47:14.896Z,10.30
2018-01-18T14:49:43.274Z,11.05
2018-01-18T14:52:11.632Z,7.47
2018-01-18T14:54:46.102Z,7.93
2018-01-18T14:57:16.605Z,7.55
2018-01-18T14:59:44.968Z,11.40
2018-01-18T15:02:13.338Z,4.72
2018-01-18T15:04:41.712Z,7.85
2018-01-18T15:07:10.048Z,7.22
2018-01-18T15:09:38.518Z,8.45
2018-01-18T15:12:06.838Z,10.13
2018-01-18T15:14:35.182Z,5.68
2018-01-18T15:17:03.570Z,8.23
2018-01-18T15:19:31.913Z,7.97
2018-01-18T15:22:00.256Z,7.18
2018-01-18T15:24:28.630Z,6.75
2018-01-18T15:26:56.989Z,7.55
2018-01-18T15:29:25.313Z,8.90
2018-01-18T15:31:53.725Z,6.32
2018-01-18T15:34:22.095Z,8.18
2018-01-18T15:36:50.433Z,11.38
2018-01-18T15:39:18.773Z,8.95
2018-01-18T15:41:47.159Z,9.00
2018-01-18T15:44:15.507Z,11.00
2018-01-18T15:46:43.931Z,10.85
2018-01-18T15:49:12.273Z,11.65
2018-01-18T15:51:40.602Z,6.32
2018-01-18T15:54:09.017Z,11.45
2018-01-18T15:56:37.414Z,10.68
2018-01-18T15:59:05.818Z,12.05
2018-01-18T16:01:34.249Z,11.80
2018-01-18T16:04:02.640Z,25.88
2018-01-18T16:06:31.022Z,19.98
2018-01-18T16:08:59.440Z,18.25
2018-01-18T16:11:27.779Z,12.93
2018-01-18T16:13:56.089Z,15.45
2018-01-18T16:16:24.457Z,11.82
2018-01-18T16:18:52.883Z,18.50
2018-01-18T16:21:21.217Z,13.02
2018-01-18T16:23:49.629Z,12.20
2018-01-18T16:26:18.006Z,15.18
2018-01-18T16:28:46.358Z,18.45
2018-01-18T16:31:14.740Z,19.67
2018-01-18T16:33:43.062Z,15.70
2018-01-18T16:36:11.405Z,20.62
2018-01-18T16:38:39.778Z,11.90
2018-01-18T16:41:08.123Z,18.37
2018-01-18T16:43:36.552Z,14.32
2018-01-18T16:46:04.933Z,16.60
2018-01-18T16:48:33.307Z,13.27
2018-01-18T16:51:01.649Z,11.00
2018-01-18T16:53:30.024Z,14.32
2018-01-18T16:55:58.358Z,11.90
2018-01-18T16:58:26.726Z,12.73
2018-01-18T17:00:55.229Z,21.83
2018-01-18T17:03:23.624Z,17.12
2018-01-18T17:05:51.979Z,19.30
2018-01-18T17:08:20.368Z,15.52
2018-01-18T17:10:48.719Z,18.90
2018-01-18T17:13:17.132Z,14.85
2018-01-18T17:15:45.541Z,16.77
2018-01-18T17:18:13.894Z,13.23
2018-01-18T17:20:42.255Z,12.60
2018-01-18T17:23:10.596Z,17.30
2018-01-18T17:25:38.969Z,13.25
2018-01-18T17:28:07.348Z,14.87
2018-01-18T17:30:35.748Z,11.52
2018-01-18T17:33:04.071Z,16.10
2018-01-18T17:35:32.430Z,16.83
2018-01-18T17:38:00.831Z,11.85
2018-01-18T17:40:29.164Z,21.15
2018-01-18T17:42:57.590Z,20.17
2018-01-18T17:45:25.976Z,19.50
2018-01-18T17:47:54.329Z,16.80
2018-01-18T17:50:22.680Z,15.10
2018-01-18T17:52:51.037Z,16.35
2018-01-18T17:55:19.428Z,14.77
2018-01-18T17:57:47.794Z,20.65
2018-01-18T18:00:16.196Z,18.42
2018-01-18T18:02:44.574Z,20.95
2018-01-18T18:05:12.895Z,20.05
2018-01-18T18:07:41.309Z,20.37
2018-01-18T18:10:09.740Z,21.80
2018-01-18T18:12:38.084Z,25.83
2018-01-18T18:15:06.473Z,20.42
2018-01-18T18:17:34.890Z,18.98
2018-01-18T18:20:03.224Z,17.27
2018-01-18T18:22:31.625Z,17.58
2018-01-18T18:24:59.998Z,16.42
2018-01-18T18:27:28.388Z,17.12
2018-01-18T18:29:56.767Z,17.87
2018-01-18T18:32:28.347Z,20.35
2018-01-18T18:34:56.913Z,23.35
2018-01-18T18:37:25.250Z,19.42
2018-01-18T18:39:53.578Z,14.87
2018-01-18T18:42:21.960Z,15.30
2018-01-18T18:44:50.319Z,15.98
2018-01-18T18:47:18.642Z,19.17
2018-01-18T18:49:47.005Z,16.10
2018-01-18T18:52:15.342Z,16.83
2018-01-18T18:54:43.701Z,18.27
2018-01-18T18:57:12.059Z,19.60
2018-01-18T18:59:40.442Z,26.23
2018-01-18T19:02:08.802Z,16.83
2018-01-18T19:04:37.221Z,25.02
2018-01-18T19:07:05.570Z,26.50
2018-01-18T19:09:33.909Z,16.80
2018-01-18T19:12:02.277Z,20.27
2018-01-18T19:14:30.605Z,19.90
2018-01-18T19:16:58.969Z,14.20
2018-01-18T19:19:27.344Z,16.92
2018-01-18T19:21:55.676Z,14.90
2018-01-18T19:24:24.052Z,14.98
2018-01-18T19:26:52.442Z,17.35
2018-01-18T19:29:20.792Z,17.08
2018-01-18T19:31:49.162Z,18.48
2018-01-18T19:34:17.545Z,23.27
2018-01-18T19:36:45.907Z,18.23
2018-01-18T19:39:14.217Z,20.15
2018-01-18T19:41:42.569Z,18.48
2018-01-18T19:44:10.903Z,23.85
2018-01-18T19:46:39.294Z,18.17
2018-01-18T19:49:07.643Z,18.77
2018-01-18T19:51:36.005Z,21.23
2018-01-18T19:54:04.389Z,14.68
2018-01-18T19:56:32.800Z,16.08
2018-01-18T19:59:01.184Z,27.05
2018-01-18T20:01:29.601Z,23.75
2018-01-18T20:03:57.980Z,16.55
2018-01-18T20:06:26.394Z,16.70
2018-01-18T20:08:54.716Z,12.48
2018-01-18T20:11:23.094Z,18.70
2018-01-18T20:13:51.520Z,15.68
2018-01-18T20:16:19.931Z,14.25
2018-01-18T20:18:48.355Z,13.05
2018-01-18T20:21:16.743Z,14.23
2018-01-18T20:23:45.103Z,15.70
2018-01-18T20:26:13.437Z,14.35
2018-01-18T20:28:41.770Z,9.45
2018-01-18T20:31:10.137Z,15.48
2018-01-18T20:33:38.493Z,14.90
2018-01-18T20:36:06.855Z,15.88
2018-01-18T20:38:35.242Z,15.80
2018-01-18T20:41:03.600Z,15.63
2018-01-18T20:43:31.937Z,19.02
2018-01-18T20:46:00.279Z,13.60
2018-01-18T20:48:28.671Z,16.40
2018-01-18T20:50:57.005Z,15.02
2018-01-18T20:53:25.344Z,11.30
2018-01-18T20:55:53.688Z,10.40
2018-01-18T20:58:22.021Z,11.85
2018-01-18T21:00:50.353Z,13.05
2018-01-18T21:03:18.741Z,11.82
2018-01-18T21:05:47.115Z,13.52
2018-01-18T21:08:19.218Z,15.05
2018-01-18T21:10:47.554Z,10.23
2018-01-18T21:13:15.933Z,11.05
2018-01-18T21:15:44.373Z,13.45
2018-01-18T21:18:12.698Z,10.13
2018-01-18T21:20:41.013Z,11.90
2018-01-18T21:23:09.366Z,13.80
2018-01-18T21:25:37.710Z,12.37
2018-01-18T21:28:06.068Z,12.10
2018-01-18T21:30:34.535Z,11.25
2018-01-18T21:33:02.867Z,12.75
2018-01-18T21:35:31.176Z,11.98
2018-01-18T21:37:59.588Z,11.05
2018-01-18T21:40:27.918Z,13.48
2018-01-18T21:42:56.253Z,12.43
2018-01-18T21:45:24.606Z,9.80
2018-01-18T21:47:52.949Z,14.73
2018-01-18T21:50:21.292Z,11.95
2018-01-18T21:52:50.794Z,11.40
2018-01-18T21:55:19.114Z,13.25
2018-01-18T21:57:47.481Z,11.30
2018-01-18T22:00:15.864Z,12.70
2018-01-18T22:02:44.184Z,13.35
2018-01-18T22:05:12.501Z,13.32
2018-01-18T22:07:40.923Z,28.80
2018-01-18T22:10:09.273Z,16.40
2018-01-18T22:12:37.629Z,14.87
2018-01-18T22:15:06.000Z,10.70
2018-01-18T22:17:34.383Z,13.60
2018-01-18T22:20:09.802Z,16.83
2018-01-18T22:22:38.126Z,17.98
2018-01-18T22:25:06.449Z,11.05
2018-01-18T22:27:34.874Z,11.18
2018-01-18T22:30:03.308Z,12.10
2018-01-18T22:32:31.654Z,12.02
2018-01-18T22:35:00.008Z,12.10
2018-01-18T22:37:28.353Z,11.10
2018-01-18T22:39:56.734Z,11.40
2018-01-18T22:42:25.098Z,15.45
2018-01-18T22:44:53.479Z,13.38
2018-01-18T22:47:21.821Z,13.55
2018-01-18T22:49:50.193Z,14.52
2018-01-18T22:52:18.514Z,16.27
2018-01-18T22:54:46.864Z,11.07
2018-01-18T22:57:15.253Z,9.73
2018-01-18T22:59:43.586Z,10.13
2018-01-18T23:02:11.934Z,11.80
2018-01-18T23:04:40.280Z,11.52
2018-01-18T23:07:08.588Z,10.30
2018-01-18T23:09:36.994Z,8.20
2018-01-18T23:12:05.402Z,8.90
2018-01-18T23:14:33.747Z,11.35
2018-01-18T23:17:02.175Z,10.23
2018-01-18T23:19:30.532Z,11.25
2018-01-18T23:21:58.876Z,8.57
2018-01-18T23:24:27.215Z,10.15
2018-01-18T23:26:55.571Z,9.48
2018-01-18T23:29:23.951Z,7.70
2018-01-18T23:31:52.387Z,6.82
2018-01-18T23:34:20.734Z,7.62
2018-01-18T23:36:49.055Z,9.25
2018-01-18T23:39:17.389Z,8.18
2018-01-18T23:41:45.771Z,8.35
2018-01-18T23:44:14.176Z,6.07
2018-01-18T23:46:42.562Z,6.22
2018-01-18T23:49:10.962Z,6.50
2018-01-18T23:51:39.329Z,5.05
2018-01-18T23:54:07.658Z,8.10
2018-01-18T23:56:36.018Z,10.55
2018-01-18T23:59:04.337Z,7.60
